Map

Track Data

SID SEASON NUMBER BASIN SUBBASIN NAME ISO_TIME NATURE LAT LON WMO_WIND WMO_PRES WMO_AGENCY TRACK_TYPE DIST2LAND LANDFALL IFLAG USA_AGENCY USA_ATCF_ID USA_LAT USA_LON USA_RECORD USA_STATUS USA_WIND USA_PRES USA_SSHS USA_R34_NE USA_R34_SE USA_R34_SW USA_R34_NW USA_R50_NE USA_R50_SE USA_R50_SW USA_R50_NW USA_R64_NE USA_R64_SE USA_R64_SW USA_R64_NW USA_POCI USA_ROCI USA_RMW USA_EYE TOKYO_LAT TOKYO_LON TOKYO_GRADE TOKYO_WIND TOKYO_PRES TOKYO_R50_DIR TOKYO_R50_LONG TOKYO_R50_SHORT TOKYO_R30_DIR TOKYO_R30_LONG TOKYO_R30_SHORT TOKYO_LAND CMA_LAT CMA_LON CMA_CAT CMA_WIND CMA_PRES HKO_LAT HKO_LON HKO_CAT HKO_WIND HKO_PRES NEWDELHI_LAT NEWDELHI_LON NEWDELHI_GRADE NEWDELHI_WIND NEWDELHI_PRES NEWDELHI_CI NEWDELHI_DP NEWDELHI_POCI REUNION_LAT REUNION_LON REUNION_TYPE REUNION_WIND REUNION_PRES REUNION_TNUM REUNION_CI REUNION_RMW REUNION_R34_NE REUNION_R34_SE REUNION_R34_SW REUNION_R34_NW REUNION_R50_NE REUNION_R50_SE REUNION_R50_SW REUNION_R50_NW REUNION_R64_NE REUNION_R64_SE REUNION_R64_SW REUNION_R64_NW BOM_LAT BOM_LON BOM_TYPE BOM_WIND BOM_PRES BOM_TNUM BOM_CI BOM_RMW BOM_R34_NE BOM_R34_SE BOM_R34_SW BOM_R34_NW BOM_R50_NE BOM_R50_SE BOM_R50_SW BOM_R50_NW BOM_R64_NE BOM_R64_SE BOM_R64_SW BOM_R64_NW BOM_ROCI BOM_POCI BOM_EYE BOM_POS_METHOD BOM_PRES_METHOD NADI_LAT NADI_LON NADI_CAT NADI_WIND NADI_PRES WELLINGTON_LAT WELLINGTON_LON WELLINGTON_WIND WELLINGTON_PRES DS824_LAT DS824_LON DS824_STAGE DS824_WIND DS824_PRES TD9636_LAT TD9636_LON TD9636_STAGE TD9636_WIND TD9636_PRES TD9635_LAT TD9635_LON TD9635_WIND TD9635_PRES TD9635_ROCI NEUMANN_LAT NEUMANN_LON NEUMANN_CLASS NEUMANN_WIND NEUMANN_PRES MLC_LAT MLC_LON MLC_CLASS MLC_WIND MLC_PRES USA_GUST BOM_GUST BOM_GUST_PER REUNION_GUST REUNION_GUST_PER USA_SEAHGT USA_SEARAD_NE USA_SEARAD_SE USA_SEARAD_SW USA_SEARAD_NW STORM_SPEED STORM_DIR
1970284N14072 1970 131 NI AS NOT_NAMED 1970-10-10 18:00:00 TS 13.6000 71.7000 main 290 290 O________O____ jtwc_io IO111970 13.6000 71.7000 -1 13.6000 71.7000 TC 1 285
1970284N14072 1970 131 NI AS NOT_NAMED 1970-10-10 21:00:00 TS 13.6175 71.6326 main 299 299 P________P____ IO111970 13.6175 71.6326 -1 13.6175 71.6326 TC 3 289
1970284N14072 1970 131 NI AS NOT_NAMED 1970-10-11 00:00:00 TS 13.7000 71.4000 main 311 311 O________O____ jtwc_io IO111970 13.7000 71.4000 -1 13.7000 71.4000 TC 25 8 291
1970284N14072 1970 131 NI AS NOT_NAMED 1970-10-11 03:00:00 TS 13.8976 70.8797 main 349 349 P________PO___ IO111970 13.8973 70.8772 -1 13.8973 70.8772 TC 25 13.9000 70.9000 1 14 291
1970284N14072 1970 131 NI AS NOT_NAMED 1970-10-11 06:00:00 TS 14.2106 70.0584 main 417 417 O________OP___ jtwc_io IO111970 14.2000 70.1000 -1 14.2000 70.1000 TC 25 14.2532 69.8923 1 19 292
1970284N14072 1970 131 NI AS NOT_NAMED 1970-10-11 09:00:00 TS 14.5959 69.0584 main 497 497 P________PP___ IO111970 14.5932 69.1080 -1 14.5932 69.1080 TC 25 14.6033 68.9259 1 21 292
1970284N14072 1970 131 NI AS NOT_NAMED 1970-10-11 12:00:00 TS 14.9838 68.0822 main 581 581 O________OP___ jtwc_io IO111970 15.0000 68.1000 -1 15.0000 68.1000 TC 25 14.9515 68.0467 1 18 293
1970284N14072 1970 131 NI AS NOT_NAMED 1970-10-11 15:00:00 TS 15.3047 67.3164 main 655 655 P________PO___ IO111970 15.3070 67.3246 -1 15.3070 67.3246 TC 25 15.3000 67.3000 1 15 295
1970284N14072 1970 131 NI AS NOT_NAMED 1970-10-11 18:00:00 TS 15.6164 66.7029 main 712 709 O________OP___ jtwc_io IO111970 15.6000 66.7000 -1 15.6000 66.7000 TC 25 15.6492 66.7088 1 13 302
1970284N14072 1970 131 NI AS NOT_NAMED 1970-10-11 21:00:00 TS 15.9631 66.2016 main 709 706 P________PP___ IO111970 15.9494 66.1997 -1 15.9494 66.1997 TC 25 15.9904 66.2055 1 12 305
1970284N14072 1970 131 NI AS NOT_NAMED 1970-10-12 00:00:00 TS 16.3039 65.6999 main 716 714 O________OP___ jtwc_io IO111970 16.3000 65.7000 -1 16.3000 65.7000 TC 25 16.3116 65.6996 1 13 301
1970284N14072 1970 131 NI AS NOT_NAMED 1970-10-12 03:00:00 TS 16.6147 65.0832 main 735 725 P________PO___ IO111970 16.6220 65.0748 -1 16.6220 65.0748 TC 25 16.6000 65.1000 1 15 294
1970284N14072 1970 131 NI AS NOT_NAMED 1970-10-12 06:00:00 TS 16.9025 64.2732 main 725 619 O________OP___ jtwc_io IO111970 16.9000 64.3000 -1 16.9000 64.3000 TC 25 16.9075 64.2197 1 18 287
1970284N14072 1970 131 NI AS NOT_NAMED 1970-10-12 09:00:00 TS 17.1483 63.2918 main 619 512 P________PP___ IO111970 17.1380 63.3152 -1 17.1380 63.3152 TC 25 17.1687 63.2452 1 19 282
1970284N14072 1970 131 NI AS NOT_NAMED 1970-10-12 12:00:00 TS 17.3150 62.2909 main 512 429 O________OP___ jtwc_io IO111970 17.3000 62.3000 -1 17.3000 62.3000 TC 25 17.3451 62.2728 1 18 278
1970284N14072 1970 131 NI AS NOT_NAMED 1970-10-12 15:00:00 TS 17.4115 61.4167 main 420 354 P________PO___ IO111970 17.4172 61.4251 -1 17.4172 61.4251 TC 25 17.4000 61.4000 1 15 272
1970284N14072 1970 131 NI AS NOT_NAMED 1970-10-12 18:00:00 TS 17.3643 60.7002 main 354 323 O________OP___ jtwc_io IO111970 17.4000 60.7000 -1 17.4000 60.7000 TC 25 17.3108 60.7005 1 12 258
1970284N14072 1970 131 NI AS NOT_NAMED 1970-10-12 21:00:00 TS 17.1608 60.1498 main 315 307 P________PP___ IO111970 17.2026 60.1496 -1 17.2026 60.1496 TC 25 17.1051 60.1500 1 11 242
1970284N14072 1970 131 NI AS NOT_NAMED 1970-10-13 00:00:00 TS 16.8610 59.6998 main 309 309 O________OP___ jtwc_io IO111970 16.9000 59.7000 -1 16.9000 59.7000 TC 25 16.8220 59.6997 1 11 231
1970284N14072 1970 131 NI AS NOT_NAMED 1970-10-13 03:00:00 NR 16.5000 59.3000 main 321 __________O___ IO111970 -1 TC 16.5000 59.3000 1 11 227

About IBTrACS Database

This database is a web-friendly format of International Best Track Archive for Climate Stewardship (IBTrACS), a global best track data archive curated by NOAA dating back to 1842.

Updated: 2021-10-21